sensor_id;sensor_type;location;lat;lon;timestamp;P1;durP1;ratioP1;P2;durP2;ratioP2
65658;SDS011;60181;53.258;6.932;2024-01-25T00:00:21;32.80;;;4.70;;
65658;SDS011;60181;53.258;6.932;2024-01-25T00:04:33;32.80;;;4.70;;
65658;SDS011;60181;53.258;6.932;2024-01-25T00:08:45;32.80;;;4.70;;
65658;SDS011;60181;53.258;6.932;2024-01-25T00:12:57;32.30;;;3.90;;
65658;SDS011;60181;53.258;6.932;2024-01-25T00:17:09;32.30;;;3.90;;
65658;SDS011;60181;53.258;6.932;2024-01-25T00:21:21;27.20;;;3.80;;
65658;SDS011;60181;53.258;6.932;2024-01-25T00:25:33;27.20;;;3.80;;
65658;SDS011;60181;53.258;6.932;2024-01-25T00:29:45;30.10;;;3.60;;
65658;SDS011;60181;53.258;6.932;2024-01-25T00:33:57;30.10;;;3.60;;
65658;SDS011;60181;53.258;6.932;2024-01-25T00:38:09;30.10;;;3.60;;
65658;SDS011;60181;53.258;6.932;2024-01-25T00:42:21;29.70;;;3.90;;
65658;SDS011;60181;53.258;6.932;2024-01-25T00:46:33;29.70;;;3.90;;
65658;SDS011;60181;53.258;6.932;2024-01-25T00:50:45;27.50;;;3.80;;
65658;SDS011;60181;53.258;6.932;2024-01-25T00:54:57;27.50;;;3.80;;
65658;SDS011;60181;53.258;6.932;2024-01-25T00:59:09;27.50;;;3.80;;
65658;SDS011;60181;53.258;6.932;2024-01-25T01:03:21;28.40;;;3.70;;
65658;SDS011;60181;53.258;6.932;2024-01-25T01:07:33;28.40;;;3.70;;
65658;SDS011;60181;53.258;6.932;2024-01-25T01:11:45;32.70;;;3.60;;
65658;SDS011;60181;53.258;6.932;2024-01-25T01:15:57;32.70;;;3.60;;
65658;SDS011;60181;53.258;6.932;2024-01-25T01:20:09;31.10;;;3.70;;
65658;SDS011;60181;53.258;6.932;2024-01-25T01:24:21;31.10;;;3.70;;
65658;SDS011;60181;53.258;6.932;2024-01-25T01:28:33;31.10;;;3.70;;
65658;SDS011;60181;53.258;6.932;2024-01-25T01:32:45;28.70;;;3.90;;
65658;SDS011;60181;53.258;6.932;2024-01-25T01:36:57;28.70;;;3.90;;
65658;SDS011;60181;53.258;6.932;2024-01-25T01:41:09;35.60;;;4.20;;
65658;SDS011;60181;53.258;6.932;2024-01-25T01:45:21;35.60;;;4.20;;
65658;SDS011;60181;53.258;6.932;2024-01-25T01:49:33;35.60;;;4.20;;
65658;SDS011;60181;53.258;6.932;2024-01-25T01:53:45;31.70;;;4.10;;
65658;SDS011;60181;53.258;6.932;2024-01-25T01:57:57;31.70;;;4.10;;
65658;SDS011;60181;53.258;6.932;2024-01-25T02:02:09;36.90;;;4.20;;
65658;SDS011;60181;53.258;6.932;2024-01-25T02:06:21;36.90;;;4.20;;
65658;SDS011;60181;53.258;6.932;2024-01-25T02:10:33;32.70;;;4.20;;
65658;SDS011;60181;53.258;6.932;2024-01-25T02:14:45;32.70;;;4.20;;
65658;SDS011;60181;53.258;6.932;2024-01-25T02:18:57;32.70;;;4.20;;
65658;SDS011;60181;53.258;6.932;2024-01-25T02:23:09;39.00;;;4.40;;
65658;SDS011;60181;53.258;6.932;2024-01-25T02:27:21;39.00;;;4.40;;
65658;SDS011;60181;53.258;6.932;2024-01-25T02:31:33;35.70;;;4.20;;
65658;SDS011;60181;53.258;6.932;2024-01-25T02:35:45;35.70;;;4.20;;
65658;SDS011;60181;53.258;6.932;2024-01-25T02:39:57;34.90;;;4.90;;
65658;SDS011;60181;53.258;6.932;2024-01-25T02:44:09;34.90;;;4.90;;
65658;SDS011;60181;53.258;6.932;2024-01-25T02:48:21;34.90;;;4.90;;
65658;SDS011;60181;53.258;6.932;2024-01-25T02:52:33;39.20;;;4.50;;
65658;SDS011;60181;53.258;6.932;2024-01-25T02:56:45;39.20;;;4.50;;
65658;SDS011;60181;53.258;6.932;2024-01-25T03:00:57;41.10;;;4.50;;
65658;SDS011;60181;53.258;6.932;2024-01-25T03:05:09;41.10;;;4.50;;
65658;SDS011;60181;53.258;6.932;2024-01-25T03:09:21;41.10;;;4.50;;
65658;SDS011;60181;53.258;6.932;2024-01-25T03:13:33;40.00;;;4.50;;
65658;SDS011;60181;53.258;6.932;2024-01-25T03:17:45;40.00;;;4.50;;
65658;SDS011;60181;53.258;6.932;2024-01-25T03:21:57;35.90;;;4.20;;
65658;SDS011;60181;53.258;6.932;2024-01-25T03:26:09;35.90;;;4.20;;
65658;SDS011;60181;53.258;6.932;2024-01-25T03:30:21;38.30;;;4.80;;
65658;SDS011;60181;53.258;6.932;2024-01-25T03:34:33;38.30;;;4.80;;
65658;SDS011;60181;53.258;6.932;2024-01-25T03:38:45;38.30;;;4.80;;
65658;SDS011;60181;53.258;6.932;2024-01-25T03:42:57;38.40;;;4.80;;
65658;SDS011;60181;53.258;6.932;2024-01-25T03:47:09;38.40;;;4.80;;
65658;SDS011;60181;53.258;6.932;2024-01-25T03:51:21;39.10;;;4.70;;
65658;SDS011;60181;53.258;6.932;2024-01-25T03:55:33;39.10;;;4.70;;
65658;SDS011;60181;53.258;6.932;2024-01-25T03:59:45;46.30;;;4.60;;
65658;SDS011;60181;53.258;6.932;2024-01-25T04:03:57;46.30;;;4.60;;
65658;SDS011;60181;53.258;6.932;2024-01-25T04:08:09;46.30;;;4.60;;
65658;SDS011;60181;53.258;6.932;2024-01-25T04:12:21;41.00;;;4.50;;
65658;SDS011;60181;53.258;6.932;2024-01-25T04:16:33;41.00;;;4.50;;
65658;SDS011;60181;53.258;6.932;2024-01-25T04:20:45;38.60;;;4.60;;
65658;SDS011;60181;53.258;6.932;2024-01-25T04:24:57;38.60;;;4.60;;
65658;SDS011;60181;53.258;6.932;2024-01-25T04:29:09;38.60;;;4.60;;
65658;SDS011;60181;53.258;6.932;2024-01-25T04:33:21;38.70;;;4.70;;
65658;SDS011;60181;53.258;6.932;2024-01-25T04:37:33;38.70;;;4.70;;
65658;SDS011;60181;53.258;6.932;2024-01-25T04:41:45;40.20;;;4.30;;
65658;SDS011;60181;53.258;6.932;2024-01-25T04:45:57;40.20;;;4.30;;
65658;SDS011;60181;53.258;6.932;2024-01-25T04:50:09;42.80;;;4.90;;
65658;SDS011;60181;53.258;6.932;2024-01-25T04:54:21;42.80;;;4.90;;
65658;SDS011;60181;53.258;6.932;2024-01-25T04:58:33;42.80;;;4.90;;
65658;SDS011;60181;53.258;6.932;2024-01-25T05:02:45;37.70;;;4.60;;
65658;SDS011;60181;53.258;6.932;2024-01-25T05:06:57;37.70;;;4.60;;
65658;SDS011;60181;53.258;6.932;2024-01-25T05:11:09;38.00;;;4.60;;
65658;SDS011;60181;53.258;6.932;2024-01-25T05:15:21;38.00;;;4.60;;
65658;SDS011;60181;53.258;6.932;2024-01-25T05:19:33;38.00;;;4.60;;
65658;SDS011;60181;53.258;6.932;2024-01-25T05:23:45;39.30;;;4.50;;
65658;SDS011;60181;53.258;6.932;2024-01-25T05:27:57;39.30;;;4.50;;
65658;SDS011;60181;53.258;6.932;2024-01-25T05:32:09;42.50;;;5.00;;
65658;SDS011;60181;53.258;6.932;2024-01-25T05:36:21;42.50;;;5.00;;
65658;SDS011;60181;53.258;6.932;2024-01-25T05:40:33;47.40;;;5.10;;
65658;SDS011;60181;53.258;6.932;2024-01-25T05:44:45;47.40;;;5.10;;
65658;SDS011;60181;53.258;6.932;2024-01-25T05:48:57;47.40;;;5.10;;
65658;SDS011;60181;53.258;6.932;2024-01-25T05:53:09;39.20;;;4.10;;
65658;SDS011;60181;53.258;6.932;2024-01-25T05:57:21;39.20;;;4.10;;
65658;SDS011;60181;53.258;6.932;2024-01-25T06:01:33;49.30;;;4.90;;
65658;SDS011;60181;53.258;6.932;2024-01-25T06:05:45;49.30;;;4.90;;
65658;SDS011;60181;53.258;6.932;2024-01-25T06:09:57;35.40;;;4.30;;
65658;SDS011;60181;53.258;6.932;2024-01-25T06:14:09;35.40;;;4.30;;
65658;SDS011;60181;53.258;6.932;2024-01-25T06:18:21;35.40;;;4.30;;
65658;SDS011;60181;53.258;6.932;2024-01-25T06:22:33;32.00;;;4.60;;
65658;SDS011;60181;53.258;6.932;2024-01-25T06:26:45;32.00;;;4.60;;
65658;SDS011;60181;53.258;6.932;2024-01-25T06:30:57;38.70;;;4.70;;
65658;SDS011;60181;53.258;6.932;2024-01-25T06:35:09;38.70;;;4.70;;
65658;SDS011;60181;53.258;6.932;2024-01-25T06:39:21;38.70;;;4.70;;
65658;SDS011;60181;53.258;6.932;2024-01-25T06:43:33;31.10;;;4.40;;
65658;SDS011;60181;53.258;6.932;2024-01-25T06:47:45;31.10;;;4.40;;
65658;SDS011;60181;53.258;6.932;2024-01-25T06:51:57;37.20;;;4.50;;
65658;SDS011;60181;53.258;6.932;2024-01-25T06:56:09;37.20;;;4.50;;
65658;SDS011;60181;53.258;6.932;2024-01-25T07:00:21;38.30;;;4.30;;
65658;SDS011;60181;53.258;6.932;2024-01-25T07:04:33;38.30;;;4.30;;
65658;SDS011;60181;53.258;6.932;2024-01-25T07:08:45;38.30;;;4.30;;
65658;SDS011;60181;53.258;6.932;2024-01-25T07:12:57;44.10;;;5.20;;
65658;SDS011;60181;53.258;6.932;2024-01-25T07:17:08;44.10;;;5.20;;
65658;SDS011;60181;53.258;6.932;2024-01-25T07:21:20;40.20;;;4.70;;
65658;SDS011;60181;53.258;6.932;2024-01-25T07:25:32;40.20;;;4.70;;
65658;SDS011;60181;53.258;6.932;2024-01-25T07:29:44;34.10;;;4.20;;
65658;SDS011;60181;53.258;6.932;2024-01-25T07:33:56;34.10;;;4.20;;
65658;SDS011;60181;53.258;6.932;2024-01-25T07:38:08;34.10;;;4.20;;
65658;SDS011;60181;53.258;6.932;2024-01-25T07:42:20;29.10;;;4.10;;
65658;SDS011;60181;53.258;6.932;2024-01-25T07:46:32;29.10;;;4.10;;
65658;SDS011;60181;53.258;6.932;2024-01-25T07:50:44;38.30;;;4.80;;
65658;SDS011;60181;53.258;6.932;2024-01-25T07:54:56;38.30;;;4.80;;
65658;SDS011;60181;53.258;6.932;2024-01-25T07:59:08;38.30;;;4.80;;
65658;SDS011;60181;53.258;6.932;2024-01-25T08:03:21;37.90;;;5.00;;
65658;SDS011;60181;53.258;6.932;2024-01-25T08:07:32;37.90;;;5.00;;
65658;SDS011;60181;53.258;6.932;2024-01-25T08:11:44;37.50;;;4.60;;
65658;SDS011;60181;53.258;6.932;2024-01-25T08:15:57;37.50;;;4.60;;
65658;SDS011;60181;53.258;6.932;2024-01-25T08:20:09;37.70;;;4.60;;
65658;SDS011;60181;53.258;6.932;2024-01-25T08:24:20;37.70;;;4.60;;
65658;SDS011;60181;53.258;6.932;2024-01-25T08:28:32;37.70;;;4.60;;
65658;SDS011;60181;53.258;6.932;2024-01-25T08:32:44;37.80;;;4.90;;
65658;SDS011;60181;53.258;6.932;2024-01-25T08:36:56;37.80;;;4.90;;
65658;SDS011;60181;53.258;6.932;2024-01-25T08:41:08;34.20;;;4.40;;
65658;SDS011;60181;53.258;6.932;2024-01-25T08:45:20;34.20;;;4.40;;
65658;SDS011;60181;53.258;6.932;2024-01-25T08:49:32;34.20;;;4.40;;
65658;SDS011;60181;53.258;6.932;2024-01-25T08:53:44;61.90;;;5.80;;
65658;SDS011;60181;53.258;6.932;2024-01-25T08:57:56;61.90;;;5.80;;
65658;SDS011;60181;53.258;6.932;2024-01-25T09:02:08;38.60;;;4.50;;
65658;SDS011;60181;53.258;6.932;2024-01-25T09:06:20;38.60;;;4.50;;
65658;SDS011;60181;53.258;6.932;2024-01-25T09:10:32;31.90;;;3.70;;
65658;SDS011;60181;53.258;6.932;2024-01-25T09:14:44;31.90;;;3.70;;
65658;SDS011;60181;53.258;6.932;2024-01-25T09:18:56;31.90;;;3.70;;
65658;SDS011;60181;53.258;6.932;2024-01-25T09:23:08;32.20;;;3.90;;
65658;SDS011;60181;53.258;6.932;2024-01-25T09:27:20;32.20;;;3.90;;
65658;SDS011;60181;53.258;6.932;2024-01-25T09:31:32;26.80;;;3.80;;
65658;SDS011;60181;53.258;6.932;2024-01-25T09:35:44;26.80;;;3.80;;
65658;SDS011;60181;53.258;6.932;2024-01-25T09:39:56;26.30;;;3.20;;
65658;SDS011;60181;53.258;6.932;2024-01-25T09:44:08;26.30;;;3.20;;
65658;SDS011;60181;53.258;6.932;2024-01-25T09:48:20;26.30;;;3.20;;
65658;SDS011;60181;53.258;6.932;2024-01-25T09:52:32;27.60;;;3.20;;
65658;SDS011;60181;53.258;6.932;2024-01-25T09:56:44;27.60;;;3.20;;
65658;SDS011;60181;53.258;6.932;2024-01-25T10:00:56;24.10;;;3.40;;
65658;SDS011;60181;53.258;6.932;2024-01-25T10:05:08;24.10;;;3.40;;
65658;SDS011;60181;53.258;6.932;2024-01-25T10:09:20;24.10;;;3.40;;
65658;SDS011;60181;53.258;6.932;2024-01-25T10:13:32;20.50;;;3.80;;
65658;SDS011;60181;53.258;6.932;2024-01-25T10:17:44;20.50;;;3.80;;
65658;SDS011;60181;53.258;6.932;2024-01-25T10:21:56;22.80;;;3.60;;
65658;SDS011;60181;53.258;6.932;2024-01-25T10:26:09;22.80;;;3.60;;
65658;SDS011;60181;53.258;6.932;2024-01-25T10:30:20;17.70;;;3.60;;
65658;SDS011;60181;53.258;6.932;2024-01-25T10:34:32;17.70;;;3.60;;
65658;SDS011;60181;53.258;6.932;2024-01-25T10:38:44;17.70;;;3.60;;
65658;SDS011;60181;53.258;6.932;2024-01-25T10:42:56;21.50;;;3.90;;
65658;SDS011;60181;53.258;6.932;2024-01-25T10:47:08;21.50;;;3.90;;
65658;SDS011;60181;53.258;6.932;2024-01-25T10:51:20;19.60;;;3.60;;
65658;SDS011;60181;53.258;6.932;2024-01-25T10:55:32;19.60;;;3.60;;
65658;SDS011;60181;53.258;6.932;2024-01-25T10:59:44;17.70;;;3.90;;
65658;SDS011;60181;53.258;6.932;2024-01-25T11:03:56;17.70;;;3.90;;
65658;SDS011;60181;53.258;6.932;2024-01-25T11:08:16;17.70;;;3.90;;
65658;SDS011;60181;53.258;6.932;2024-01-25T11:12:20;13.40;;;3.30;;
65658;SDS011;60181;53.258;6.932;2024-01-25T11:16:32;13.40;;;3.30;;
65658;SDS011;60181;53.258;6.932;2024-01-25T11:20:46;23.00;;;3.50;;
65658;SDS011;60181;53.258;6.932;2024-01-25T11:24:56;23.00;;;3.50;;
65658;SDS011;60181;53.258;6.932;2024-01-25T11:29:08;23.00;;;3.50;;
65658;SDS011;60181;53.258;6.932;2024-01-25T11:33:20;18.40;;;3.20;;
65658;SDS011;60181;53.258;6.932;2024-01-25T11:37:32;18.40;;;3.20;;
65658;SDS011;60181;53.258;6.932;2024-01-25T11:41:44;20.60;;;3.50;;
65658;SDS011;60181;53.258;6.932;2024-01-25T11:45:56;20.60;;;3.50;;
65658;SDS011;60181;53.258;6.932;2024-01-25T11:50:09;15.10;;;2.80;;
65658;SDS011;60181;53.258;6.932;2024-01-25T11:54:20;15.10;;;2.80;;
65658;SDS011;60181;53.258;6.932;2024-01-25T11:58:32;15.10;;;2.80;;
65658;SDS011;60181;53.258;6.932;2024-01-25T12:02:44;16.60;;;2.70;;
65658;SDS011;60181;53.258;6.932;2024-01-25T12:06:56;16.60;;;2.70;;
65658;SDS011;60181;53.258;6.932;2024-01-25T12:11:09;15.40;;;2.70;;
65658;SDS011;60181;53.258;6.932;2024-01-25T12:15:20;15.40;;;2.70;;
65658;SDS011;60181;53.258;6.932;2024-01-25T12:19:32;15.40;;;2.70;;
65658;SDS011;60181;53.258;6.932;2024-01-25T12:23:44;16.50;;;3.10;;
65658;SDS011;60181;53.258;6.932;2024-01-25T12:27:56;16.50;;;3.10;;
65658;SDS011;60181;53.258;6.932;2024-01-25T12:32:09;18.10;;;2.90;;
65658;SDS011;60181;53.258;6.932;2024-01-25T12:36:20;18.10;;;2.90;;
65658;SDS011;60181;53.258;6.932;2024-01-25T12:40:32;17.30;;;2.60;;
65658;SDS011;60181;53.258;6.932;2024-01-25T12:44:44;17.30;;;2.60;;
65658;SDS011;60181;53.258;6.932;2024-01-25T12:48:56;17.30;;;2.60;;
65658;SDS011;60181;53.258;6.932;2024-01-25T12:53:09;14.30;;;2.50;;
65658;SDS011;60181;53.258;6.932;2024-01-25T12:57:20;14.30;;;2.50;;
65658;SDS011;60181;53.258;6.932;2024-01-25T13:01:32;17.30;;;2.60;;
65658;SDS011;60181;53.258;6.932;2024-01-25T13:05:44;17.30;;;2.60;;
65658;SDS011;60181;53.258;6.932;2024-01-25T13:09:56;16.90;;;2.40;;
65658;SDS011;60181;53.258;6.932;2024-01-25T13:14:08;16.90;;;2.40;;
65658;SDS011;60181;53.258;6.932;2024-01-25T13:18:20;16.90;;;2.40;;
65658;SDS011;60181;53.258;6.932;2024-01-25T13:22:32;15.50;;;2.50;;
65658;SDS011;60181;53.258;6.932;2024-01-25T13:26:44;15.50;;;2.50;;
65658;SDS011;60181;53.258;6.932;2024-01-25T13:30:56;12.10;;;2.40;;
65658;SDS011;60181;53.258;6.932;2024-01-25T13:35:08;12.10;;;2.40;;
65658;SDS011;60181;53.258;6.932;2024-01-25T13:39:20;12.10;;;2.40;;
65658;SDS011;60181;53.258;6.932;2024-01-25T13:43:32;15.30;;;2.20;;
65658;SDS011;60181;53.258;6.932;2024-01-25T13:47:44;15.30;;;2.20;;
65658;SDS011;60181;53.258;6.932;2024-01-25T13:51:56;15.30;;;2.90;;
65658;SDS011;60181;53.258;6.932;2024-01-25T13:56:08;15.30;;;2.90;;
65658;SDS011;60181;53.258;6.932;2024-01-25T14:00:20;11.20;;;2.60;;
65658;SDS011;60181;53.258;6.932;2024-01-25T14:04:32;11.20;;;2.60;;
65658;SDS011;60181;53.258;6.932;2024-01-25T14:08:44;11.20;;;2.60;;
65658;SDS011;60181;53.258;6.932;2024-01-25T14:12:56;9.80;;;2.20;;
65658;SDS011;60181;53.258;6.932;2024-01-25T14:17:08;9.80;;;2.20;;
65658;SDS011;60181;53.258;6.932;2024-01-25T14:21:20;10.40;;;2.20;;
65658;SDS011;60181;53.258;6.932;2024-01-25T14:25:32;10.40;;;2.20;;
65658;SDS011;60181;53.258;6.932;2024-01-25T14:29:44;16.30;;;2.40;;
65658;SDS011;60181;53.258;6.932;2024-01-25T14:33:56;16.30;;;2.40;;
65658;SDS011;60181;53.258;6.932;2024-01-25T14:38:08;16.30;;;2.40;;
65658;SDS011;60181;53.258;6.932;2024-01-25T14:42:20;12.90;;;2.40;;
65658;SDS011;60181;53.258;6.932;2024-01-25T14:46:32;12.90;;;2.40;;
65658;SDS011;60181;53.258;6.932;2024-01-25T14:50:44;13.50;;;2.20;;
65658;SDS011;60181;53.258;6.932;2024-01-25T14:54:56;13.50;;;2.20;;
65658;SDS011;60181;53.258;6.932;2024-01-25T14:59:09;13.50;;;2.20;;
65658;SDS011;60181;53.258;6.932;2024-01-25T15:03:20;10.50;;;2.40;;
65658;SDS011;60181;53.258;6.932;2024-01-25T15:07:32;10.50;;;2.40;;
65658;SDS011;60181;53.258;6.932;2024-01-25T15:11:44;10.90;;;2.20;;
65658;SDS011;60181;53.258;6.932;2024-01-25T15:15:56;10.90;;;2.20;;
65658;SDS011;60181;53.258;6.932;2024-01-25T15:20:08;11.80;;;2.50;;
65658;SDS011;60181;53.258;6.932;2024-01-25T15:24:20;11.80;;;2.50;;
65658;SDS011;60181;53.258;6.932;2024-01-25T15:28:32;11.80;;;2.50;;
65658;SDS011;60181;53.258;6.932;2024-01-25T15:32:44;9.80;;;2.20;;
65658;SDS011;60181;53.258;6.932;2024-01-25T15:36:56;9.80;;;2.20;;
65658;SDS011;60181;53.258;6.932;2024-01-25T15:41:09;11.00;;;2.70;;
65658;SDS011;60181;53.258;6.932;2024-01-25T15:45:20;11.00;;;2.70;;
65658;SDS011;60181;53.258;6.932;2024-01-25T15:49:32;11.00;;;2.70;;
65658;SDS011;60181;53.258;6.932;2024-01-25T15:53:44;11.00;;;2.30;;
65658;SDS011;60181;53.258;6.932;2024-01-25T15:57:56;11.00;;;2.30;;
65658;SDS011;60181;53.258;6.932;2024-01-25T16:02:08;15.40;;;3.00;;
65658;SDS011;60181;53.258;6.932;2024-01-25T16:06:20;15.40;;;3.00;;
65658;SDS011;60181;53.258;6.932;2024-01-25T16:10:32;17.90;;;4.10;;
65658;SDS011;60181;53.258;6.932;2024-01-25T16:14:44;17.90;;;4.10;;
65658;SDS011;60181;53.258;6.932;2024-01-25T16:18:56;17.90;;;4.10;;
65658;SDS011;60181;53.258;6.932;2024-01-25T16:23:08;22.50;;;4.70;;
65658;SDS011;60181;53.258;6.932;2024-01-25T16:27:20;22.50;;;4.70;;
65658;SDS011;60181;53.258;6.932;2024-01-25T16:31:32;21.90;;;5.10;;
65658;SDS011;60181;53.258;6.932;2024-01-25T16:35:44;21.90;;;5.10;;
65658;SDS011;60181;53.258;6.932;2024-01-25T16:39:56;23.00;;;5.80;;
65658;SDS011;60181;53.258;6.932;2024-01-25T16:44:08;23.00;;;5.80;;
65658;SDS011;60181;53.258;6.932;2024-01-25T16:48:20;23.00;;;5.80;;
65658;SDS011;60181;53.258;6.932;2024-01-25T16:52:32;23.10;;;5.50;;
65658;SDS011;60181;53.258;6.932;2024-01-25T16:56:44;23.10;;;5.50;;
65658;SDS011;60181;53.258;6.932;2024-01-25T17:00:56;22.80;;;6.20;;
65658;SDS011;60181;53.258;6.932;2024-01-25T17:05:08;22.80;;;6.20;;
65658;SDS011;60181;53.258;6.932;2024-01-25T17:09:20;22.80;;;6.20;;
65658;SDS011;60181;53.258;6.932;2024-01-25T17:13:32;25.80;;;6.50;;
65658;SDS011;60181;53.258;6.932;2024-01-25T17:17:44;25.80;;;6.50;;
65658;SDS011;60181;53.258;6.932;2024-01-25T17:21:56;25.30;;;6.20;;
65658;SDS011;60181;53.258;6.932;2024-01-25T17:26:08;25.30;;;6.20;;
65658;SDS011;60181;53.258;6.932;2024-01-25T17:30:20;23.60;;;6.10;;
65658;SDS011;60181;53.258;6.932;2024-01-25T17:34:32;23.60;;;6.10;;
65658;SDS011;60181;53.258;6.932;2024-01-25T17:38:44;23.60;;;6.10;;
65658;SDS011;60181;53.258;6.932;2024-01-25T17:42:56;25.50;;;6.30;;
65658;SDS011;60181;53.258;6.932;2024-01-25T17:47:08;25.50;;;6.30;;
65658;SDS011;60181;53.258;6.932;2024-01-25T17:51:20;28.20;;;6.40;;
65658;SDS011;60181;53.258;6.932;2024-01-25T17:55:32;28.20;;;6.40;;
65658;SDS011;60181;53.258;6.932;2024-01-25T17:59:44;25.90;;;6.50;;
65658;SDS011;60181;53.258;6.932;2024-01-25T18:03:56;25.90;;;6.50;;
65658;SDS011;60181;53.258;6.932;2024-01-25T18:08:08;25.90;;;6.50;;
65658;SDS011;60181;53.258;6.932;2024-01-25T18:12:20;25.80;;;6.30;;
65658;SDS011;60181;53.258;6.932;2024-01-25T18:16:32;25.80;;;6.30;;
65658;SDS011;60181;53.258;6.932;2024-01-25T18:20:44;26.40;;;6.00;;
65658;SDS011;60181;53.258;6.932;2024-01-25T18:24:56;26.40;;;6.00;;
65658;SDS011;60181;53.258;6.932;2024-01-25T18:29:08;26.40;;;6.00;;
65658;SDS011;60181;53.258;6.932;2024-01-25T18:33:20;33.50;;;6.30;;
65658;SDS011;60181;53.258;6.932;2024-01-25T18:37:32;33.50;;;6.30;;
65658;SDS011;60181;53.258;6.932;2024-01-25T18:41:44;23.90;;;6.40;;
65658;SDS011;60181;53.258;6.932;2024-01-25T18:45:56;23.90;;;6.40;;
65658;SDS011;60181;53.258;6.932;2024-01-25T18:50:08;23.80;;;6.20;;
65658;SDS011;60181;53.258;6.932;2024-01-25T18:54:20;23.80;;;6.20;;
65658;SDS011;60181;53.258;6.932;2024-01-25T18:58:32;23.80;;;6.20;;
65658;SDS011;60181;53.258;6.932;2024-01-25T19:02:44;23.30;;;6.20;;
65658;SDS011;60181;53.258;6.932;2024-01-25T19:06:56;23.30;;;6.20;;
65658;SDS011;60181;53.258;6.932;2024-01-25T19:11:07;19.10;;;6.00;;
65658;SDS011;60181;53.258;6.932;2024-01-25T19:15:19;19.10;;;6.00;;
65658;SDS011;60181;53.258;6.932;2024-01-25T19:19:31;19.10;;;6.00;;
65658;SDS011;60181;53.258;6.932;2024-01-25T19:23:43;21.40;;;5.60;;
65658;SDS011;60181;53.258;6.932;2024-01-25T19:27:55;21.40;;;5.60;;
65658;SDS011;60181;53.258;6.932;2024-01-25T19:32:07;19.10;;;5.30;;
65658;SDS011;60181;53.258;6.932;2024-01-25T19:36:19;19.10;;;5.30;;
65658;SDS011;60181;53.258;6.932;2024-01-25T19:40:31;19.20;;;5.50;;
65658;SDS011;60181;53.258;6.932;2024-01-25T19:44:43;19.20;;;5.50;;
65658;SDS011;60181;53.258;6.932;2024-01-25T19:48:55;19.20;;;5.50;;
65658;SDS011;60181;53.258;6.932;2024-01-25T19:53:07;18.30;;;5.30;;
65658;SDS011;60181;53.258;6.932;2024-01-25T19:57:20;18.30;;;5.30;;
65658;SDS011;60181;53.258;6.932;2024-01-25T20:01:32;18.80;;;5.10;;
65658;SDS011;60181;53.258;6.932;2024-01-25T20:05:44;18.80;;;5.10;;
65658;SDS011;60181;53.258;6.932;2024-01-25T20:09:55;16.80;;;5.10;;
65658;SDS011;60181;53.258;6.932;2024-01-25T20:14:07;16.80;;;5.10;;
65658;SDS011;60181;53.258;6.932;2024-01-25T20:18:19;16.80;;;5.10;;
65658;SDS011;60181;53.258;6.932;2024-01-25T20:22:31;22.00;;;5.80;;
65658;SDS011;60181;53.258;6.932;2024-01-25T20:26:43;22.00;;;5.80;;
65658;SDS011;60181;53.258;6.932;2024-01-25T20:30:55;15.90;;;4.70;;
65658;SDS011;60181;53.258;6.932;2024-01-25T20:35:07;15.90;;;4.70;;
65658;SDS011;60181;53.258;6.932;2024-01-25T20:39:19;15.90;;;4.70;;
65658;SDS011;60181;53.258;6.932;2024-01-25T20:43:31;18.50;;;4.90;;
65658;SDS011;60181;53.258;6.932;2024-01-25T20:47:43;18.50;;;4.90;;
65658;SDS011;60181;53.258;6.932;2024-01-25T20:51:55;18.40;;;5.20;;
65658;SDS011;60181;53.258;6.932;2024-01-25T20:56:07;18.40;;;5.20;;
65658;SDS011;60181;53.258;6.932;2024-01-25T21:00:19;17.30;;;5.20;;
65658;SDS011;60181;53.258;6.932;2024-01-25T21:04:31;17.30;;;5.20;;
65658;SDS011;60181;53.258;6.932;2024-01-25T21:08:44;17.30;;;5.20;;
65658;SDS011;60181;53.258;6.932;2024-01-25T21:12:56;16.10;;;4.60;;
65658;SDS011;60181;53.258;6.932;2024-01-25T21:17:07;16.10;;;4.60;;
65658;SDS011;60181;53.258;6.932;2024-01-25T21:21:19;25.30;;;5.30;;
65658;SDS011;60181;53.258;6.932;2024-01-25T21:25:31;25.30;;;5.30;;
65658;SDS011;60181;53.258;6.932;2024-01-25T21:29:43;18.30;;;4.90;;
65658;SDS011;60181;53.258;6.932;2024-01-25T21:33:55;18.30;;;4.90;;
65658;SDS011;60181;53.258;6.932;2024-01-25T21:38:07;18.30;;;4.90;;
65658;SDS011;60181;53.258;6.932;2024-01-25T21:42:19;15.60;;;4.70;;
65658;SDS011;60181;53.258;6.932;2024-01-25T21:46:31;15.60;;;4.70;;
65658;SDS011;60181;53.258;6.932;2024-01-25T21:50:43;16.80;;;4.80;;
65658;SDS011;60181;53.258;6.932;2024-01-25T21:54:55;16.80;;;4.80;;
65658;SDS011;60181;53.258;6.932;2024-01-25T21:59:07;16.80;;;4.80;;
65658;SDS011;60181;53.258;6.932;2024-01-25T22:03:19;40.20;;;10.10;;
65658;SDS011;60181;53.258;6.932;2024-01-25T22:07:31;40.20;;;10.10;;
65658;SDS011;60181;53.258;6.932;2024-01-25T22:11:43;35.70;;;11.70;;
65658;SDS011;60181;53.258;6.932;2024-01-25T22:15:55;35.70;;;11.70;;
65658;SDS011;60181;53.258;6.932;2024-01-25T22:20:08;44.10;;;13.60;;
65658;SDS011;60181;53.258;6.932;2024-01-25T22:24:19;44.10;;;13.60;;
65658;SDS011;60181;53.258;6.932;2024-01-25T22:28:31;44.10;;;13.60;;
65658;SDS011;60181;53.258;6.932;2024-01-25T22:32:43;41.00;;;14.80;;
65658;SDS011;60181;53.258;6.932;2024-01-25T22:36:55;41.00;;;14.80;;
65658;SDS011;60181;53.258;6.932;2024-01-25T22:41:07;39.80;;;14.30;;
65658;SDS011;60181;53.258;6.932;2024-01-25T22:45:19;39.80;;;14.30;;
65658;SDS011;60181;53.258;6.932;2024-01-25T22:49:31;39.80;;;14.30;;
65658;SDS011;60181;53.258;6.932;2024-01-25T22:53:43;40.70;;;14.30;;
65658;SDS011;60181;53.258;6.932;2024-01-25T22:57:55;40.70;;;14.30;;
65658;SDS011;60181;53.258;6.932;2024-01-25T23:02:07;41.70;;;14.20;;
65658;SDS011;60181;53.258;6.932;2024-01-25T23:06:19;41.70;;;14.20;;
65658;SDS011;60181;53.258;6.932;2024-01-25T23:10:31;36.80;;;13.70;;
65658;SDS011;60181;53.258;6.932;2024-01-25T23:14:43;36.80;;;13.70;;
65658;SDS011;60181;53.258;6.932;2024-01-25T23:18:55;36.80;;;13.70;;
65658;SDS011;60181;53.258;6.932;2024-01-25T23:23:07;30.70;;;12.60;;
65658;SDS011;60181;53.258;6.932;2024-01-25T23:27:19;30.70;;;12.60;;
65658;SDS011;60181;53.258;6.932;2024-01-25T23:31:31;29.30;;;12.50;;
65658;SDS011;60181;53.258;6.932;2024-01-25T23:35:43;29.30;;;12.50;;
65658;SDS011;60181;53.258;6.932;2024-01-25T23:39:55;30.00;;;12.20;;
65658;SDS011;60181;53.258;6.932;2024-01-25T23:44:07;30.00;;;12.20;;
65658;SDS011;60181;53.258;6.932;2024-01-25T23:48:19;30.00;;;12.20;;
65658;SDS011;60181;53.258;6.932;2024-01-25T23:52:31;25.90;;;11.60;;
65658;SDS011;60181;53.258;6.932;2024-01-25T23:56:43;25.90;;;11.60;;
